sensor_id;sensor_type;location;lat;lon;timestamp;P1;durP1;ratioP1;P2;durP2;ratioP2
6864;SDS011;3471;49.678;8.388;2022-07-22T00:01:16;6.10;;;5.60;;
6864;SDS011;3471;49.678;8.388;2022-07-22T00:03:41;5.47;;;4.97;;
6864;SDS011;3471;49.678;8.388;2022-07-22T00:06:07;9.23;;;5.83;;
6864;SDS011;3471;49.678;8.388;2022-07-22T00:08:33;6.40;;;5.78;;
6864;SDS011;3471;49.678;8.388;2022-07-22T00:10:58;8.48;;;6.32;;
6864;SDS011;3471;49.678;8.388;2022-07-22T00:13:24;8.45;;;5.60;;
6864;SDS011;3471;49.678;8.388;2022-07-22T00:15:50;10.23;;;6.20;;
6864;SDS011;3471;49.678;8.388;2022-07-22T00:18:15;11.43;;;5.80;;
6864;SDS011;3471;49.678;8.388;2022-07-22T00:20:41;8.00;;;6.47;;
6864;SDS011;3471;49.678;8.388;2022-07-22T00:23:07;8.38;;;7.10;;
6864;SDS011;3471;49.678;8.388;2022-07-22T00:25:33;14.80;;;5.57;;
6864;SDS011;3471;49.678;8.388;2022-07-22T00:27:59;5.73;;;5.23;;
6864;SDS011;3471;49.678;8.388;2022-07-22T00:30:25;5.90;;;5.20;;
6864;SDS011;3471;49.678;8.388;2022-07-22T00:32:51;6.30;;;5.70;;
6864;SDS011;3471;49.678;8.388;2022-07-22T00:35:16;13.80;;;6.13;;
6864;SDS011;3471;49.678;8.388;2022-07-22T00:37:42;7.10;;;6.50;;
6864;SDS011;3471;49.678;8.388;2022-07-22T00:40:08;5.05;;;4.60;;
6864;SDS011;3471;49.678;8.388;2022-07-22T00:42:34;12.90;;;6.35;;
6864;SDS011;3471;49.678;8.388;2022-07-22T00:45:00;6.90;;;5.63;;
6864;SDS011;3471;49.678;8.388;2022-07-22T00:47:26;6.70;;;5.00;;
6864;SDS011;3471;49.678;8.388;2022-07-22T00:49:51;14.98;;;5.63;;
6864;SDS011;3471;49.678;8.388;2022-07-22T00:52:20;9.70;;;5.65;;
6864;SDS011;3471;49.678;8.388;2022-07-22T00:54:47;6.40;;;5.25;;
6864;SDS011;3471;49.678;8.388;2022-07-22T00:57:13;7.60;;;5.70;;
6864;SDS011;3471;49.678;8.388;2022-07-22T00:59:38;10.32;;;6.57;;
6864;SDS011;3471;49.678;8.388;2022-07-22T01:02:04;7.03;;;4.03;;
6864;SDS011;3471;49.678;8.388;2022-07-22T01:04:30;6.82;;;4.40;;
6864;SDS011;3471;49.678;8.388;2022-07-22T01:06:55;5.20;;;4.80;;
6864;SDS011;3471;49.678;8.388;2022-07-22T01:09:21;7.85;;;6.15;;
6864;SDS011;3471;49.678;8.388;2022-07-22T01:11:47;12.00;;;5.47;;
6864;SDS011;3471;49.678;8.388;2022-07-22T01:14:12;5.82;;;5.22;;
6864;SDS011;3471;49.678;8.388;2022-07-22T01:16:38;7.20;;;5.53;;
6864;SDS011;3471;49.678;8.388;2022-07-22T01:19:04;6.13;;;5.55;;
6864;SDS011;3471;49.678;8.388;2022-07-22T01:21:30;11.80;;;6.07;;
6864;SDS011;3471;49.678;8.388;2022-07-22T01:23:56;7.13;;;6.38;;
6864;SDS011;3471;49.678;8.388;2022-07-22T01:26:22;12.30;;;7.10;;
6864;SDS011;3471;49.678;8.388;2022-07-22T01:28:48;8.17;;;6.27;;
6864;SDS011;3471;49.678;8.388;2022-07-22T01:31:13;7.20;;;6.70;;
6864;SDS011;3471;49.678;8.388;2022-07-22T01:33:39;6.60;;;5.80;;
6864;SDS011;3471;49.678;8.388;2022-07-22T01:36:05;7.70;;;6.43;;
6864;SDS011;3471;49.678;8.388;2022-07-22T01:38:32;5.13;;;4.57;;
6864;SDS011;3471;49.678;8.388;2022-07-22T01:40:58;8.73;;;7.95;;
6864;SDS011;3471;49.678;8.388;2022-07-22T01:43:23;8.30;;;5.93;;
6864;SDS011;3471;49.678;8.388;2022-07-22T01:45:51;10.00;;;5.57;;
6864;SDS011;3471;49.678;8.388;2022-07-22T01:48:17;8.10;;;5.22;;
6864;SDS011;3471;49.678;8.388;2022-07-22T01:50:43;17.23;;;6.30;;
6864;SDS011;3471;49.678;8.388;2022-07-22T01:53:10;5.85;;;5.25;;
6864;SDS011;3471;49.678;8.388;2022-07-22T01:55:35;6.75;;;6.05;;
6864;SDS011;3471;49.678;8.388;2022-07-22T01:58:02;6.10;;;4.93;;
6864;SDS011;3471;49.678;8.388;2022-07-22T02:00:29;7.22;;;5.60;;
6864;SDS011;3471;49.678;8.388;2022-07-22T02:02:55;7.10;;;6.07;;
6864;SDS011;3471;49.678;8.388;2022-07-22T02:05:20;6.53;;;5.72;;
6864;SDS011;3471;49.678;8.388;2022-07-22T02:07:46;11.88;;;6.25;;
6864;SDS011;3471;49.678;8.388;2022-07-22T02:10:12;16.33;;;6.25;;
6864;SDS011;3471;49.678;8.388;2022-07-22T02:12:38;7.67;;;6.50;;
6864;SDS011;3471;49.678;8.388;2022-07-22T02:15:04;6.20;;;5.60;;
6864;SDS011;3471;49.678;8.388;2022-07-22T02:17:30;8.18;;;6.68;;
6864;SDS011;3471;49.678;8.388;2022-07-22T02:19:58;11.25;;;5.25;;
6864;SDS011;3471;49.678;8.388;2022-07-22T02:22:24;9.95;;;6.60;;
6864;SDS011;3471;49.678;8.388;2022-07-22T02:24:49;9.60;;;6.80;;
6864;SDS011;3471;49.678;8.388;2022-07-22T02:27:15;10.30;;;7.00;;
6864;SDS011;3471;49.678;8.388;2022-07-22T02:29:41;5.90;;;5.40;;
6864;SDS011;3471;49.678;8.388;2022-07-22T02:32:07;5.93;;;5.30;;
6864;SDS011;3471;49.678;8.388;2022-07-22T02:34:32;7.60;;;6.90;;
6864;SDS011;3471;49.678;8.388;2022-07-22T02:36:58;7.43;;;6.53;;
6864;SDS011;3471;49.678;8.388;2022-07-22T02:39:24;7.38;;;6.38;;
6864;SDS011;3471;49.678;8.388;2022-07-22T02:41:49;10.93;;;6.20;;
6864;SDS011;3471;49.678;8.388;2022-07-22T02:44:15;7.38;;;6.40;;
6864;SDS011;3471;49.678;8.388;2022-07-22T02:46:41;10.45;;;6.05;;
6864;SDS011;3471;49.678;8.388;2022-07-22T02:49:07;7.53;;;6.40;;
6864;SDS011;3471;49.678;8.388;2022-07-22T02:51:32;5.57;;;5.07;;
6864;SDS011;3471;49.678;8.388;2022-07-22T02:53:58;7.10;;;6.50;;
6864;SDS011;3471;49.678;8.388;2022-07-22T02:56:24;6.03;;;5.43;;
6864;SDS011;3471;49.678;8.388;2022-07-22T02:58:49;14.52;;;6.82;;
6864;SDS011;3471;49.678;8.388;2022-07-22T03:01:18;8.57;;;6.20;;
6864;SDS011;3471;49.678;8.388;2022-07-22T03:03:44;7.65;;;6.43;;
6864;SDS011;3471;49.678;8.388;2022-07-22T03:06:10;9.32;;;6.43;;
6864;SDS011;3471;49.678;8.388;2022-07-22T03:08:36;7.10;;;6.40;;
6864;SDS011;3471;49.678;8.388;2022-07-22T03:11:02;9.55;;;8.50;;
6864;SDS011;3471;49.678;8.388;2022-07-22T03:13:28;10.48;;;8.50;;
6864;SDS011;3471;49.678;8.388;2022-07-22T03:15:54;9.18;;;5.22;;
6864;SDS011;3471;49.678;8.388;2022-07-22T03:18:19;6.30;;;5.40;;
6864;SDS011;3471;49.678;8.388;2022-07-22T03:20:45;7.30;;;6.00;;
6864;SDS011;3471;49.678;8.388;2022-07-22T03:23:11;6.40;;;5.80;;
6864;SDS011;3471;49.678;8.388;2022-07-22T03:25:36;7.83;;;7.00;;
6864;SDS011;3471;49.678;8.388;2022-07-22T03:28:03;7.47;;;5.88;;
6864;SDS011;3471;49.678;8.388;2022-07-22T03:30:29;7.00;;;5.95;;
6864;SDS011;3471;49.678;8.388;2022-07-22T03:32:55;10.33;;;6.33;;
6864;SDS011;3471;49.678;8.388;2022-07-22T03:35:21;8.00;;;7.20;;
6864;SDS011;3471;49.678;8.388;2022-07-22T03:37:47;10.50;;;6.57;;
6864;SDS011;3471;49.678;8.388;2022-07-22T03:40:12;6.40;;;5.75;;
6864;SDS011;3471;49.678;8.388;2022-07-22T03:42:38;8.40;;;5.78;;
6864;SDS011;3471;49.678;8.388;2022-07-22T03:45:04;8.48;;;7.50;;
6864;SDS011;3471;49.678;8.388;2022-07-22T03:47:30;8.03;;;7.07;;
6864;SDS011;3471;49.678;8.388;2022-07-22T03:49:55;8.77;;;6.70;;
6864;SDS011;3471;49.678;8.388;2022-07-22T03:52:23;12.70;;;8.90;;
6864;SDS011;3471;49.678;8.388;2022-07-22T03:54:49;35.63;;;7.70;;
6864;SDS011;3471;49.678;8.388;2022-07-22T03:57:15;6.80;;;5.80;;
6864;SDS011;3471;49.678;8.388;2022-07-22T03:59:41;7.25;;;6.40;;
6864;SDS011;3471;49.678;8.388;2022-07-22T04:02:06;11.80;;;7.60;;
6864;SDS011;3471;49.678;8.388;2022-07-22T04:04:32;6.75;;;6.07;;
6864;SDS011;3471;49.678;8.388;2022-07-22T04:06:58;10.40;;;6.80;;
6864;SDS011;3471;49.678;8.388;2022-07-22T04:09:23;8.10;;;5.70;;
6864;SDS011;3471;49.678;8.388;2022-07-22T04:11:49;12.60;;;8.65;;
6864;SDS011;3471;49.678;8.388;2022-07-22T04:14:15;6.35;;;5.43;;
6864;SDS011;3471;49.678;8.388;2022-07-22T04:16:41;7.85;;;5.68;;
6864;SDS011;3471;49.678;8.388;2022-07-22T04:19:09;11.27;;;6.22;;
6864;SDS011;3471;49.678;8.388;2022-07-22T04:21:35;8.65;;;5.70;;
6864;SDS011;3471;49.678;8.388;2022-07-22T04:24:01;6.63;;;5.90;;
6864;SDS011;3471;49.678;8.388;2022-07-22T04:26:27;13.00;;;6.83;;
6864;SDS011;3471;49.678;8.388;2022-07-22T04:28:52;6.53;;;5.93;;
6864;SDS011;3471;49.678;8.388;2022-07-22T04:31:18;14.10;;;7.93;;
6864;SDS011;3471;49.678;8.388;2022-07-22T04:33:43;9.47;;;8.53;;
6864;SDS011;3471;49.678;8.388;2022-07-22T04:36:09;8.77;;;7.93;;
6864;SDS011;3471;49.678;8.388;2022-07-22T04:38:35;9.00;;;6.97;;
6864;SDS011;3471;49.678;8.388;2022-07-22T04:41:00;9.10;;;6.10;;
6864;SDS011;3471;49.678;8.388;2022-07-22T04:43:26;9.20;;;7.15;;
6864;SDS011;3471;49.678;8.388;2022-07-22T04:45:52;16.10;;;8.05;;
6864;SDS011;3471;49.678;8.388;2022-07-22T04:48:18;8.87;;;7.33;;
6864;SDS011;3471;49.678;8.388;2022-07-22T04:50:43;6.60;;;6.00;;
6864;SDS011;3471;49.678;8.388;2022-07-22T04:53:09;11.47;;;6.87;;
6864;SDS011;3471;49.678;8.388;2022-07-22T04:55:35;5.00;;;4.50;;
6864;SDS011;3471;49.678;8.388;2022-07-22T04:58:00;11.55;;;6.85;;
6864;SDS011;3471;49.678;8.388;2022-07-22T05:00:26;10.53;;;8.00;;
6864;SDS011;3471;49.678;8.388;2022-07-22T05:05:17;9.53;;;8.07;;
6864;SDS011;3471;49.678;8.388;2022-07-22T05:07:43;8.82;;;6.00;;
6864;SDS011;3471;49.678;8.388;2022-07-22T05:10:08;8.80;;;7.45;;
6864;SDS011;3471;49.678;8.388;2022-07-22T05:12:35;9.10;;;7.63;;
6864;SDS011;3471;49.678;8.388;2022-07-22T05:15:00;9.57;;;7.95;;
6864;SDS011;3471;49.678;8.388;2022-07-22T05:17:26;10.10;;;9.27;;
6864;SDS011;3471;49.678;8.388;2022-07-22T05:19:52;13.23;;;6.68;;
6864;SDS011;3471;49.678;8.388;2022-07-22T05:22:18;9.57;;;8.57;;
6864;SDS011;3471;49.678;8.388;2022-07-22T05:24:44;8.88;;;5.10;;
6864;SDS011;3471;49.678;8.388;2022-07-22T05:27:10;8.23;;;6.95;;
6864;SDS011;3471;49.678;8.388;2022-07-22T05:29:36;7.80;;;6.90;;
6864;SDS011;3471;49.678;8.388;2022-07-22T05:32:02;8.57;;;7.10;;
6864;SDS011;3471;49.678;8.388;2022-07-22T05:34:28;11.40;;;7.18;;
6864;SDS011;3471;49.678;8.388;2022-07-22T05:36:53;10.20;;;7.40;;
6864;SDS011;3471;49.678;8.388;2022-07-22T05:39:19;8.20;;;6.97;;
6864;SDS011;3471;49.678;8.388;2022-07-22T05:41:45;10.70;;;6.50;;
6864;SDS011;3471;49.678;8.388;2022-07-22T05:44:10;6.70;;;5.88;;
6864;SDS011;3471;49.678;8.388;2022-07-22T05:46:36;13.00;;;6.13;;
6864;SDS011;3471;49.678;8.388;2022-07-22T05:49:02;12.52;;;6.65;;
6864;SDS011;3471;49.678;8.388;2022-07-22T05:51:27;8.10;;;6.10;;
6864;SDS011;3471;49.678;8.388;2022-07-22T05:53:53;8.80;;;7.10;;
6864;SDS011;3471;49.678;8.388;2022-07-22T05:56:19;6.50;;;5.90;;
6864;SDS011;3471;49.678;8.388;2022-07-22T05:58:44;9.77;;;7.47;;
6864;SDS011;3471;49.678;8.388;2022-07-22T06:01:10;6.22;;;5.57;;
6864;SDS011;3471;49.678;8.388;2022-07-22T06:03:36;11.00;;;5.53;;
6864;SDS011;3471;49.678;8.388;2022-07-22T06:06:03;8.55;;;7.65;;
6864;SDS011;3471;49.678;8.388;2022-07-22T06:08:30;8.20;;;5.63;;
6864;SDS011;3471;49.678;8.388;2022-07-22T06:10:56;18.40;;;7.70;;
6864;SDS011;3471;49.678;8.388;2022-07-22T06:13:24;8.90;;;7.80;;
6864;SDS011;3471;49.678;8.388;2022-07-22T06:15:50;7.25;;;6.55;;
6864;SDS011;3471;49.678;8.388;2022-07-22T06:18:15;12.27;;;6.13;;
6864;SDS011;3471;49.678;8.388;2022-07-22T06:20:41;6.78;;;6.07;;
6864;SDS011;3471;49.678;8.388;2022-07-22T06:23:07;12.02;;;7.55;;
6864;SDS011;3471;49.678;8.388;2022-07-22T06:25:33;9.80;;;7.40;;
6864;SDS011;3471;49.678;8.388;2022-07-22T06:27:58;6.97;;;6.27;;
6864;SDS011;3471;49.678;8.388;2022-07-22T06:30:24;7.22;;;5.72;;
6864;SDS011;3471;49.678;8.388;2022-07-22T06:32:51;7.80;;;6.70;;
6864;SDS011;3471;49.678;8.388;2022-07-22T06:35:17;8.07;;;5.72;;
6864;SDS011;3471;49.678;8.388;2022-07-22T06:37:43;8.73;;;7.10;;
6864;SDS011;3471;49.678;8.388;2022-07-22T06:40:09;7.43;;;6.30;;
6864;SDS011;3471;49.678;8.388;2022-07-22T06:42:35;6.40;;;5.80;;
6864;SDS011;3471;49.678;8.388;2022-07-22T06:45:00;8.45;;;7.55;;
6864;SDS011;3471;49.678;8.388;2022-07-22T06:47:26;13.17;;;7.00;;
6864;SDS011;3471;49.678;8.388;2022-07-22T06:49:52;5.80;;;4.87;;
6864;SDS011;3471;49.678;8.388;2022-07-22T06:52:17;10.37;;;7.70;;
6864;SDS011;3471;49.678;8.388;2022-07-22T06:54:43;7.67;;;6.60;;
6864;SDS011;3471;49.678;8.388;2022-07-22T06:57:08;6.70;;;5.40;;
6864;SDS011;3471;49.678;8.388;2022-07-22T06:59:34;9.07;;;7.53;;
6864;SDS011;3471;49.678;8.388;2022-07-22T07:02:00;5.90;;;5.30;;
6864;SDS011;3471;49.678;8.388;2022-07-22T07:04:25;11.25;;;6.63;;
6864;SDS011;3471;49.678;8.388;2022-07-22T07:06:51;12.13;;;7.25;;
6864;SDS011;3471;49.678;8.388;2022-07-22T07:09:16;6.28;;;5.45;;
6864;SDS011;3471;49.678;8.388;2022-07-22T07:11:42;13.30;;;6.40;;
6864;SDS011;3471;49.678;8.388;2022-07-22T07:14:08;6.50;;;5.03;;
6864;SDS011;3471;49.678;8.388;2022-07-22T07:16:33;7.43;;;6.63;;
6864;SDS011;3471;49.678;8.388;2022-07-22T07:18:59;7.43;;;5.70;;
6864;SDS011;3471;49.678;8.388;2022-07-22T07:21:25;9.40;;;6.63;;
6864;SDS011;3471;49.678;8.388;2022-07-22T07:23:50;8.53;;;6.37;;
6864;SDS011;3471;49.678;8.388;2022-07-22T07:26:16;6.50;;;5.90;;
6864;SDS011;3471;49.678;8.388;2022-07-22T07:28:42;7.30;;;6.60;;
6864;SDS011;3471;49.678;8.388;2022-07-22T07:31:07;12.40;;;6.70;;
6864;SDS011;3471;49.678;8.388;2022-07-22T07:33:33;16.00;;;6.95;;
6864;SDS011;3471;49.678;8.388;2022-07-22T07:35:59;14.40;;;7.65;;
6864;SDS011;3471;49.678;8.388;2022-07-22T07:38:25;9.52;;;6.32;;
6864;SDS011;3471;49.678;8.388;2022-07-22T07:40:51;11.45;;;8.50;;
6864;SDS011;3471;49.678;8.388;2022-07-22T07:43:17;10.30;;;7.20;;
6864;SDS011;3471;49.678;8.388;2022-07-22T07:45:43;8.25;;;7.15;;
6864;SDS011;3471;49.678;8.388;2022-07-22T07:48:08;10.38;;;7.00;;
6864;SDS011;3471;49.678;8.388;2022-07-22T07:50:34;6.68;;;6.07;;
6864;SDS011;3471;49.678;8.388;2022-07-22T07:53:01;19.67;;;7.37;;
6864;SDS011;3471;49.678;8.388;2022-07-22T07:55:26;8.63;;;5.97;;
6864;SDS011;3471;49.678;8.388;2022-07-22T07:57:52;7.75;;;6.85;;
6864;SDS011;3471;49.678;8.388;2022-07-22T08:00:20;9.05;;;7.53;;
6864;SDS011;3471;49.678;8.388;2022-07-22T08:02:47;9.73;;;7.28;;
6864;SDS011;3471;49.678;8.388;2022-07-22T08:05:13;7.50;;;5.37;;
6864;SDS011;3471;49.678;8.388;2022-07-22T08:07:39;8.25;;;5.97;;
6864;SDS011;3471;49.678;8.388;2022-07-22T08:10:05;11.23;;;7.00;;
6864;SDS011;3471;49.678;8.388;2022-07-22T08:12:32;8.90;;;5.25;;
6864;SDS011;3471;49.678;8.388;2022-07-22T08:14:57;8.10;;;7.10;;
6864;SDS011;3471;49.678;8.388;2022-07-22T08:17:23;6.37;;;5.70;;
6864;SDS011;3471;49.678;8.388;2022-07-22T08:19:49;4.80;;;4.28;;
6864;SDS011;3471;49.678;8.388;2022-07-22T08:22:15;10.98;;;6.95;;
6864;SDS011;3471;49.678;8.388;2022-07-22T08:24:41;24.10;;;5.70;;
6864;SDS011;3471;49.678;8.388;2022-07-22T08:27:06;8.13;;;6.05;;
6864;SDS011;3471;49.678;8.388;2022-07-22T08:29:32;6.88;;;5.45;;
6864;SDS011;3471;49.678;8.388;2022-07-22T08:31:58;7.57;;;6.73;;
6864;SDS011;3471;49.678;8.388;2022-07-22T08:34:23;7.73;;;6.10;;
6864;SDS011;3471;49.678;8.388;2022-07-22T08:36:49;10.47;;;6.47;;
6864;SDS011;3471;49.678;8.388;2022-07-22T08:39:15;5.93;;;5.32;;
6864;SDS011;3471;49.678;8.388;2022-07-22T08:41:40;10.38;;;6.13;;
6864;SDS011;3471;49.678;8.388;2022-07-22T08:44:07;7.32;;;5.93;;
6864;SDS011;3471;49.678;8.388;2022-07-22T08:46:34;9.88;;;6.75;;
6864;SDS011;3471;49.678;8.388;2022-07-22T08:49:00;6.65;;;6.13;;
6864;SDS011;3471;49.678;8.388;2022-07-22T08:51:27;11.35;;;5.72;;
6864;SDS011;3471;49.678;8.388;2022-07-22T08:53:54;6.05;;;5.45;;
6864;SDS011;3471;49.678;8.388;2022-07-22T08:56:20;7.68;;;6.88;;
6864;SDS011;3471;49.678;8.388;2022-07-22T08:58:46;9.02;;;6.13;;
6864;SDS011;3471;49.678;8.388;2022-07-22T09:01:16;7.93;;;5.95;;
6864;SDS011;3471;49.678;8.388;2022-07-22T09:03:49;6.87;;;6.17;;
6864;SDS011;3471;49.678;8.388;2022-07-22T09:06:18;15.20;;;7.50;;
6864;SDS011;3471;49.678;8.388;2022-07-22T09:08:49;11.30;;;8.00;;
6864;SDS011;3471;49.678;8.388;2022-07-22T09:11:22;8.50;;;6.32;;
6864;SDS011;3471;49.678;8.388;2022-07-22T09:13:50;5.25;;;4.70;;
6864;SDS011;3471;49.678;8.388;2022-07-22T09:16:16;11.30;;;6.15;;
6864;SDS011;3471;49.678;8.388;2022-07-22T09:19:02;8.55;;;6.55;;
6864;SDS011;3471;49.678;8.388;2022-07-22T09:21:29;11.77;;;6.30;;
6864;SDS011;3471;49.678;8.388;2022-07-22T09:23:55;6.80;;;4.93;;
6864;SDS011;3471;49.678;8.388;2022-07-22T09:29:18;6.75;;;5.75;;
6864;SDS011;3471;49.678;8.388;2022-07-22T09:31:49;7.40;;;6.00;;
6864;SDS011;3471;49.678;8.388;2022-07-22T09:34:29;8.20;;;6.30;;
6864;SDS011;3471;49.678;8.388;2022-07-22T09:36:59;6.10;;;5.50;;
6864;SDS011;3471;49.678;8.388;2022-07-22T09:41:56;8.32;;;5.20;;
6864;SDS011;3471;49.678;8.388;2022-07-22T09:44:26;9.97;;;5.90;;
6864;SDS011;3471;49.678;8.388;2022-07-22T09:46:52;7.10;;;6.30;;
6864;SDS011;3471;49.678;8.388;2022-07-22T09:49:36;4.73;;;4.33;;
6864;SDS011;3471;49.678;8.388;2022-07-22T09:52:05;4.90;;;4.40;;
6864;SDS011;3471;49.678;8.388;2022-07-22T09:54:31;8.02;;;5.95;;
6864;SDS011;3471;49.678;8.388;2022-07-22T09:56:57;6.50;;;4.70;;
6864;SDS011;3471;49.678;8.388;2022-07-22T09:59:23;9.48;;;6.47;;
6864;SDS011;3471;49.678;8.388;2022-07-22T10:01:50;7.22;;;5.18;;
6864;SDS011;3471;49.678;8.388;2022-07-22T10:04:20;5.85;;;5.25;;
6864;SDS011;3471;49.678;8.388;2022-07-22T10:06:48;11.18;;;6.70;;
6864;SDS011;3471;49.678;8.388;2022-07-22T10:09:16;6.75;;;5.05;;
6864;SDS011;3471;49.678;8.388;2022-07-22T10:11:42;5.25;;;4.75;;
6864;SDS011;3471;49.678;8.388;2022-07-22T10:14:11;5.40;;;4.90;;
6864;SDS011;3471;49.678;8.388;2022-07-22T10:16:41;12.65;;;6.03;;
6864;SDS011;3471;49.678;8.388;2022-07-22T10:19:08;14.43;;;4.97;;
6864;SDS011;3471;49.678;8.388;2022-07-22T10:21:35;5.45;;;4.95;;
6864;SDS011;3471;49.678;8.388;2022-07-22T10:24:08;5.80;;;4.80;;
6864;SDS011;3471;49.678;8.388;2022-07-22T10:26:51;5.00;;;4.50;;
6864;SDS011;3471;49.678;8.388;2022-07-22T10:29:28;4.88;;;4.43;;
6864;SDS011;3471;49.678;8.388;2022-07-22T10:34:41;8.18;;;5.43;;
6864;SDS011;3471;49.678;8.388;2022-07-22T10:37:35;3.53;;;3.23;;
6864;SDS011;3471;49.678;8.388;2022-07-22T10:45:32;5.82;;;4.25;;
6864;SDS011;3471;49.678;8.388;2022-07-22T10:47:59;4.28;;;3.88;;
6864;SDS011;3471;49.678;8.388;2022-07-22T10:53:03;6.03;;;5.18;;
6864;SDS011;3471;49.678;8.388;2022-07-22T10:55:30;5.60;;;4.68;;
6864;SDS011;3471;49.678;8.388;2022-07-22T10:57:56;5.35;;;4.90;;
6864;SDS011;3471;49.678;8.388;2022-07-22T11:00:22;7.47;;;6.32;;
6864;SDS011;3471;49.678;8.388;2022-07-22T11:02:47;5.72;;;4.22;;
6864;SDS011;3471;49.678;8.388;2022-07-22T11:05:14;4.43;;;3.90;;
6864;SDS011;3471;49.678;8.388;2022-07-22T11:07:48;6.47;;;5.28;;
6864;SDS011;3471;49.678;8.388;2022-07-22T11:10:16;5.25;;;4.85;;
6864;SDS011;3471;49.678;8.388;2022-07-22T11:12:45;5.60;;;5.00;;
6864;SDS011;3471;49.678;8.388;2022-07-22T11:15:13;5.90;;;5.40;;
6864;SDS011;3471;49.678;8.388;2022-07-22T11:17:39;5.00;;;4.60;;
6864;SDS011;3471;49.678;8.388;2022-07-22T11:20:06;5.20;;;4.70;;
6864;SDS011;3471;49.678;8.388;2022-07-22T11:22:33;6.05;;;5.45;;
6864;SDS011;3471;49.678;8.388;2022-07-22T11:25:03;4.05;;;3.75;;
6864;SDS011;3471;49.678;8.388;2022-07-22T11:27:30;4.80;;;3.50;;
6864;SDS011;3471;49.678;8.388;2022-07-22T11:29:56;8.30;;;5.00;;
6864;SDS011;3471;49.678;8.388;2022-07-22T11:32:24;5.50;;;4.50;;
6864;SDS011;3471;49.678;8.388;2022-07-22T11:34:52;5.82;;;5.20;;
6864;SDS011;3471;49.678;8.388;2022-07-22T11:37:18;4.60;;;4.10;;
6864;SDS011;3471;49.678;8.388;2022-07-22T11:39:48;7.38;;;4.80;;
6864;SDS011;3471;49.678;8.388;2022-07-22T11:42:14;16.90;;;4.30;;
6864;SDS011;3471;49.678;8.388;2022-07-22T11:44:40;4.50;;;3.97;;
6864;SDS011;3471;49.678;8.388;2022-07-22T11:47:06;4.18;;;3.88;;
6864;SDS011;3471;49.678;8.388;2022-07-22T11:49:33;7.20;;;5.60;;
6864;SDS011;3471;49.678;8.388;2022-07-22T11:52:00;5.13;;;4.07;;
6864;SDS011;3471;49.678;8.388;2022-07-22T11:54:27;6.55;;;5.15;;
6864;SDS011;3471;49.678;8.388;2022-07-22T11:56:53;5.90;;;4.60;;
6864;SDS011;3471;49.678;8.388;2022-07-22T11:59:19;5.00;;;4.60;;
6864;SDS011;3471;49.678;8.388;2022-07-22T12:01:45;3.45;;;3.15;;
6864;SDS011;3471;49.678;8.388;2022-07-22T12:04:22;5.80;;;5.20;;
6864;SDS011;3471;49.678;8.388;2022-07-22T12:06:49;4.28;;;3.88;;
6864;SDS011;3471;49.678;8.388;2022-07-22T12:09:26;9.97;;;5.20;;
6864;SDS011;3471;49.678;8.388;2022-07-22T12:11:56;8.10;;;5.03;;
6864;SDS011;3471;49.678;8.388;2022-07-22T12:14:30;8.20;;;4.47;;
6864;SDS011;3471;49.678;8.388;2022-07-22T12:16:58;5.70;;;4.70;;
6864;SDS011;3471;49.678;8.388;2022-07-22T12:19:24;2.65;;;2.45;;
6864;SDS011;3471;49.678;8.388;2022-07-22T12:24:30;5.57;;;2.88;;
6864;SDS011;3471;49.678;8.388;2022-07-22T12:27:09;6.47;;;5.75;;
6864;SDS011;3471;49.678;8.388;2022-07-22T12:32:09;8.50;;;4.30;;
6864;SDS011;3471;49.678;8.388;2022-07-22T12:37:13;4.80;;;4.05;;
6864;SDS011;3471;49.678;8.388;2022-07-22T12:42:36;6.85;;;4.72;;
6864;SDS011;3471;49.678;8.388;2022-07-22T12:45:08;11.95;;;4.80;;
6864;SDS011;3471;49.678;8.388;2022-07-22T12:50:26;6.03;;;4.65;;
6864;SDS011;3471;49.678;8.388;2022-07-22T12:53:04;4.35;;;3.95;;
6864;SDS011;3471;49.678;8.388;2022-07-22T12:55:31;3.55;;;2.83;;
6864;SDS011;3471;49.678;8.388;2022-07-22T12:57:59;4.10;;;3.50;;
6864;SDS011;3471;49.678;8.388;2022-07-22T13:00:26;4.47;;;4.07;;
6864;SDS011;3471;49.678;8.388;2022-07-22T13:02:54;10.30;;;4.70;;
6864;SDS011;3471;49.678;8.388;2022-07-22T13:05:21;3.10;;;2.80;;
6864;SDS011;3471;49.678;8.388;2022-07-22T13:07:47;7.15;;;4.57;;
6864;SDS011;3471;49.678;8.388;2022-07-22T13:10:13;6.45;;;4.97;;
6864;SDS011;3471;49.678;8.388;2022-07-22T13:12:40;5.03;;;4.15;;
6864;SDS011;3471;49.678;8.388;2022-07-22T13:15:06;4.18;;;3.83;;
6864;SDS011;3471;49.678;8.388;2022-07-22T13:17:33;4.88;;;3.10;;
6864;SDS011;3471;49.678;8.388;2022-07-22T13:19:59;5.47;;;4.97;;
6864;SDS011;3471;49.678;8.388;2022-07-22T13:22:25;4.05;;;3.75;;
6864;SDS011;3471;49.678;8.388;2022-07-22T13:24:51;7.28;;;3.90;;
6864;SDS011;3471;49.678;8.388;2022-07-22T13:27:16;5.67;;;4.00;;
6864;SDS011;3471;49.678;8.388;2022-07-22T13:29:42;5.68;;;3.83;;
6864;SDS011;3471;49.678;8.388;2022-07-22T13:32:08;17.77;;;4.37;;
6864;SDS011;3471;49.678;8.388;2022-07-22T13:34:34;14.98;;;5.50;;
6864;SDS011;3471;49.678;8.388;2022-07-22T13:37:00;4.60;;;4.20;;
6864;SDS011;3471;49.678;8.388;2022-07-22T13:39:26;16.20;;;4.40;;
6864;SDS011;3471;49.678;8.388;2022-07-22T13:41:52;11.60;;;5.57;;
6864;SDS011;3471;49.678;8.388;2022-07-22T13:44:17;4.90;;;3.75;;
6864;SDS011;3471;49.678;8.388;2022-07-22T13:46:43;4.45;;;4.05;;
6864;SDS011;3471;49.678;8.388;2022-07-22T13:49:09;4.93;;;4.40;;
6864;SDS011;3471;49.678;8.388;2022-07-22T13:51:34;4.38;;;3.97;;
6864;SDS011;3471;49.678;8.388;2022-07-22T13:54:00;4.83;;;4.33;;
6864;SDS011;3471;49.678;8.388;2022-07-22T13:56:26;3.90;;;3.50;;
6864;SDS011;3471;49.678;8.388;2022-07-22T13:58:51;3.83;;;3.42;;
6864;SDS011;3471;49.678;8.388;2022-07-22T14:01:17;10.53;;;4.23;;
6864;SDS011;3471;49.678;8.388;2022-07-22T14:03:43;6.88;;;4.70;;
6864;SDS011;3471;49.678;8.388;2022-07-22T14:06:08;5.50;;;3.90;;
6864;SDS011;3471;49.678;8.388;2022-07-22T14:08:34;5.55;;;4.22;;
6864;SDS011;3471;49.678;8.388;2022-07-22T14:11:00;4.30;;;3.38;;
6864;SDS011;3471;49.678;8.388;2022-07-22T14:13:27;4.20;;;3.80;;
6864;SDS011;3471;49.678;8.388;2022-07-22T14:15:52;4.45;;;4.05;;
6864;SDS011;3471;49.678;8.388;2022-07-22T14:18:18;4.93;;;4.30;;
6864;SDS011;3471;49.678;8.388;2022-07-22T14:20:44;4.35;;;3.95;;
6864;SDS011;3471;49.678;8.388;2022-07-22T14:23:09;3.27;;;2.97;;
6864;SDS011;3471;49.678;8.388;2022-07-22T14:25:36;4.78;;;3.95;;
6864;SDS011;3471;49.678;8.388;2022-07-22T14:28:03;3.45;;;3.15;;
6864;SDS011;3471;49.678;8.388;2022-07-22T14:30:30;3.42;;;3.13;;
6864;SDS011;3471;49.678;8.388;2022-07-22T14:32:56;5.03;;;4.13;;
6864;SDS011;3471;49.678;8.388;2022-07-22T14:35:21;5.38;;;3.50;;
6864;SDS011;3471;49.678;8.388;2022-07-22T14:37:49;4.38;;;3.97;;
6864;SDS011;3471;49.678;8.388;2022-07-22T14:40:15;5.63;;;4.25;;
6864;SDS011;3471;49.678;8.388;2022-07-22T14:42:41;4.47;;;4.03;;
6864;SDS011;3471;49.678;8.388;2022-07-22T14:45:06;5.05;;;4.53;;
6864;SDS011;3471;49.678;8.388;2022-07-22T14:47:34;4.07;;;3.67;;
6864;SDS011;3471;49.678;8.388;2022-07-22T14:50:01;4.87;;;3.73;;
6864;SDS011;3471;49.678;8.388;2022-07-22T14:52:27;6.22;;;4.70;;
6864;SDS011;3471;49.678;8.388;2022-07-22T14:54:53;5.88;;;4.63;;
6864;SDS011;3471;49.678;8.388;2022-07-22T14:57:19;4.33;;;3.57;;
6864;SDS011;3471;49.678;8.388;2022-07-22T14:59:44;8.60;;;3.87;;
6864;SDS011;3471;49.678;8.388;2022-07-22T15:02:10;4.10;;;3.60;;
6864;SDS011;3471;49.678;8.388;2022-07-22T15:04:35;8.03;;;3.93;;
6864;SDS011;3471;49.678;8.388;2022-07-22T15:07:01;7.20;;;4.60;;
6864;SDS011;3471;49.678;8.388;2022-07-22T15:09:27;4.82;;;3.63;;
6864;SDS011;3471;49.678;8.388;2022-07-22T15:11:53;3.63;;;3.33;;
6864;SDS011;3471;49.678;8.388;2022-07-22T15:14:19;5.38;;;3.88;;
6864;SDS011;3471;49.678;8.388;2022-07-22T15:16:45;4.57;;;4.18;;
6864;SDS011;3471;49.678;8.388;2022-07-22T15:19:11;4.13;;;3.60;;
6864;SDS011;3471;49.678;8.388;2022-07-22T15:21:37;4.07;;;3.20;;
6864;SDS011;3471;49.678;8.388;2022-07-22T15:24:03;3.50;;;2.90;;
6864;SDS011;3471;49.678;8.388;2022-07-22T15:26:29;11.30;;;4.80;;
6864;SDS011;3471;49.678;8.388;2022-07-22T15:28:54;4.90;;;3.40;;
6864;SDS011;3471;49.678;8.388;2022-07-22T15:31:20;5.00;;;3.90;;
6864;SDS011;3471;49.678;8.388;2022-07-22T15:33:45;5.50;;;4.63;;
6864;SDS011;3471;49.678;8.388;2022-07-22T15:36:11;4.63;;;4.23;;
6864;SDS011;3471;49.678;8.388;2022-07-22T15:38:37;5.60;;;4.60;;
6864;SDS011;3471;49.678;8.388;2022-07-22T15:41:03;3.67;;;3.37;;